• Join FlightAware (Why Join?)
  • Login
  • US Flag 
11:19PM EDT


 

Airport Tracker/Info


-or-


 

Live Flight TrackerFlight Track Log ✈ ACA90 ✈ 09-May-2013 ✈ CYYZ - SBGR / GRU

Flight Track Log - Related Links

Times and Time Zones

All times are in EDT time to prevent confusion due to time zone crossing. See the ACA90 flight status page for this flight to view local times or setup timezone preferences in your user account.

Time Position Orientation Groundspeed Altitude Reporting Facility
EDT Latitude Longitude Course Direction KTS MPH feet Rate Location/Type
12:11AM 43.7000 -79.5833 149° Southeast 190 219 2,100  Level Toronto Center
12:12AM 43.7500 -79.5333 36° Northeast 240 276 3,500 1,980 Climbing Toronto Center
12:13AM 43.7833 -79.4667 55° Northeast 270 311 6,100 2,760 Climbing Toronto Center
12:14AM 43.7333 -79.3833 130° Southeast 290 334 9,100 2,400 Climbing Toronto Center
12:15AM 43.0315 -79.0897 124° Southeast  Level Estimated
12:15AM 43.6833 -79.2833 125° Southeast 310 357 11,000  Level Toronto Center
12:16AM 42.9236 -79.0006 149° Southeast  Level Estimated
12:16AM 43.6167 -79.2000 138° Southeast 340 391 12,500  Level Toronto Center
12:17AM 42.8157 -78.9119 149° Southeast  Level Estimated
12:17AM 43.5333 -79.0833 135° Southeast 400 460 14,100  Level Toronto Center
12:18AM 43.4500 -78.9500 131° Southeast 420 483 16,600 2,280 Climbing Toronto Center
12:19AM 43.3833 -78.8000 121° Southeast 450 518 18,700 1,920 Climbing Toronto Center
12:20AM 43.3694 -78.7783 131° Southeast 446 513 19,500 1,860 Climbing Cleveland Center
12:21AM 43.2961 -78.6294 124° Southeast 460 529 21,500 1,920 Climbing Cleveland Center
12:22AM 43.2186 -78.4836 126° Southeast 470 541 23,400 1,740 Climbing Cleveland Center
12:23AM 43.1386 -78.3269 125° Southeast 487 560 25,000 1,860 Climbing Cleveland Center
12:24AM 43.0625 -78.1736 124° Southeast 492 566 27,200 1,920 Climbing Cleveland Center
12:25AM 42.9819 -78.0206 126° Southeast 492 566 28,900 1,500 Climbing Cleveland Center
12:26AM 42.8950 -77.8539 125° Southeast 492 566 30,300 780 Climbing Cleveland Center
12:27AM 42.7667 -77.5833 123° Southeast 510 587 31,000 240 Climbing Toronto Center
12:28AM 42.6833 -77.4333 127° Southeast 500 575 31,000  Level Toronto Center
12:29AM 42.6000 -77.2833 127° Southeast 510 587 31,000  Level Toronto Center
12:30AM 42.5167 -77.1167 124° Southeast 510 587 31,000  Level Toronto Center
12:31AM 42.4333 -76.9667 127° Southeast 510 587 31,000 120 Level Toronto Center
12:32AM 42.3500 -76.8167 127° Southeast 510 587 31,300 600 Climbing Toronto Center
12:33AM 42.3047 -76.7314 126° Southeast 510 587 32,100 900 Climbing New York Center
12:34AM 42.2189 -76.5753 127° Southeast 510 587 33,000 420 Climbing New York Center
12:35AM 42.1367 -76.4200 125° Southeast 505 581 33,000  Level New York Center
12:36AM 42.0522 -76.2675 127° Southeast 505 581 33,000  Level New York Center
12:37AM 41.9697 -76.1128 126° Southeast 505 581 33,000  Level New York Center
12:38AM 41.8850 -75.9611 127° Southeast 505 581 33,000  Level New York Center
12:39AM 41.8000 -75.8069 126° Southeast 505 581 33,000  Level New York Center
12:40AM 41.7167 -75.6561 126° Southeast 505 581 33,000  Level New York Center
12:41AM 41.6314 -75.5000 126° Southeast 505 581 33,000  Level New York Center
12:42AM 41.5436 -75.3497 128° Southeast 510 587 33,000  Level New York Center
12:43AM 41.4597 -75.2000 127° Southeast 510 587 33,000  Level New York Center
12:44AM 41.3758 -75.0481 126° Southeast 505 581 33,000  Level New York Center
12:50AM 40.8516 -74.1710 126° Southeast 507 583 33,000  Level FlightAware ADS-B
12:51AM 40.8025 -74.0873 128° Southeast 508 585 33,000  Level FlightAware ADS-B
12:52AM 40.7172 -73.9161 128° Southeast 509 586 33,000  Level Boston Center
12:53AM 40.6294 -73.7664 128° Southeast 509 586 33,000  Level Boston Center
12:54AM 40.5519 -73.6308 127° Southeast 524 603 33,000  Level Boston Center
12:55AM 40.4800 -73.5122 129° Southeast 524 603 33,000  Level Boston Center
12:56AM 40.3733 -73.3472 130° Southeast 518 596 33,000  Level Boston Center
12:56AM 40.3328 -73.2950 136° Southeast 510 587 33,000  Level New York Center
12:57AM 40.2250 -73.1686 138° Southeast 483 556 33,000  Level New York Center
12:58AM 40.1231 -73.0458 137° Southeast 499 574 33,000  Level New York Center
12:59AM 40.0194 -72.9150 136° Southeast 510 587 33,000  Level New York Center
01:00AM 39.9133 -72.7872 137° Southeast 510 587 33,000  Level New York Center
01:01AM 39.8092 -72.6625 137° Southeast 510 587 33,000  Level New York Center
01:02AM 39.7047 -72.5383 138° Southeast 510 587 33,000  Level New York Center
01:03AM 39.5981 -72.4117 138° Southeast 510 587 33,000  Level New York Center
01:04AM 39.4956 -72.2881 137° Southeast 510 587 33,000  Level New York Center
01:05AM 39.3886 -72.1703 140° Southeast 505 581 33,000  Level New York Center
01:06AM 39.2839 -72.0475 138° Southeast 505 581 33,000  Level New York Center
01:07AM 39.1789 -71.9250 138° Southeast 505 581 33,000  Level New York Center
01:08AM 39.0736 -71.7975 137° Southeast 505 581 33,000  Level New York Center
01:09AM 38.9683 -71.6839 140° Southeast 506 582 33,000  Level New York Center
01:10AM 38.8631 -71.5597 137° Southeast 506 582 33,000  Level New York Center
01:11AM 38.7617 -71.4414 138° Southeast 506 582 33,000 -60 Level New York Center
01:12AM 38.6600 -71.3261 138° Southeast 506 582 32,900  Descending New York Center
01:13AM 38.5583 -71.2108 138° Southeast 501 577 33,000  Climbing New York Center
01:14AM 38.4567 -71.1017 140° Southeast 496 571 32,900  Descending New York Center
01:15AM 38.3422 -71.0242 152° Southeast 482 555 33,000  Climbing New York Center
01:16AM 38.2275 -70.9392 150° Southeast 471 542 33,000  Level New York Center
01:17AM 38.1150 -70.8492 148° Southeast 471 542 33,000  Level New York Center
01:18AM 37.9900 -70.7514 148° Southeast 471 542 33,000  Level New York Center
01:19AM 37.8817 -70.6881 155° Southeast 471 542 33,000 -60 Level New York Center
01:20AM 37.7772 -70.5883 143° Southeast 471 542 32,900  Descending New York Center
01:21AM 37.6603 -70.5150 154° Southeast 471 542 33,000  Climbing New York Center
01:22AM 37.5475 -70.4317 150° Southeast 466 536 33,000  Level New York Center
01:23AM 37.4242 -70.3431 150° Southeast 466 536 33,000  Level New York Center
01:24AM 37.3092 -70.2653 152° Southeast 466 536 33,000  Level New York Center
01:26AM 37.1630 -70.1609 150° Southeast  Level FlightAware Approximate
01:33AM 36.3943 -69.6195 150° Southeast  Level FlightAware Approximate
01:34AM 36.2843 -69.5430 151° Southeast  Level FlightAware Approximate
01:35AM 36.1743 -69.4668 151° Southeast  Level FlightAware Approximate
01:36AM 36.0725 -69.3753 142° Southeast  Level FlightAware Approximate
01:37AM 35.9730 -69.2796 142° Southeast  Level FlightAware Approximate
01:37AM 36.1667 -69.4500 143° Southeast 456 525 33,000  Level New York Oceanic (ODAPS)
01:38AM 35.8734 -69.1841 142° Southeast  Level FlightAware Approximate
01:39AM 35.7737 -69.0889 142° Southeast  Level FlightAware Approximate
01:40AM 35.6740 -68.9939 142° Southeast  Level FlightAware Approximate
01:41AM 35.5741 -68.8992 142° Southeast  Level FlightAware Approximate
01:42AM 35.4742 -68.8047 142° Southeast  Level FlightAware Approximate
01:43AM 35.2552 -68.5984 143° Southeast 456 525 33,000  Level FlightAware Transoceanic
01:44AM 35.1536 -68.5050 143° Southeast 456 525 33,000  Level FlightAware Transoceanic
01:45AM 35.0519 -68.4118 143° Southeast 456 525 33,000  Level FlightAware Transoceanic
01:46AM 34.9501 -68.3188 143° Southeast 456 525 33,000  Level FlightAware Transoceanic
01:47AM 34.8482 -68.2261 143° Southeast 456 525 33,000  Level FlightAware Transoceanic
01:48AM 34.7463 -68.1336 143° Southeast 456 525 33,000  Level FlightAware Transoceanic
01:49AM 34.6443 -68.0413 143° Southeast 456 525 33,000  Level FlightAware Transoceanic
01:50AM 34.5423 -67.9493 143° Southeast 456 525 33,000  Level FlightAware Transoceanic
01:51AM 34.4401 -67.8575 143° Southeast 456 525 33,000  Level FlightAware Transoceanic
01:52AM 34.3379 -67.7659 144° Southeast 456 525 33,000  Level FlightAware Transoceanic
01:53AM 34.2357 -67.6745 144° Southeast 456 525 33,000  Level FlightAware Transoceanic
01:54AM 34.1333 -67.5833 149° Southeast 456 525 33,000  Level FlightAware Transoceanic
01:55AM 34.0235 -67.5034 149° Southeast 456 525 33,000  Level FlightAware Transoceanic
01:55AM 34.1333 -67.5833 149° Southeast 460 529 33,000  Level New York Oceanic (ODAPS)
01:56AM 33.9136 -67.4236 149° Southeast 456 525 33,000  Level FlightAware Transoceanic
01:57AM 33.8036 -67.3441 149° Southeast 456 525 33,000  Level FlightAware Transoceanic
01:58AM 33.6936 -67.2647 149° Southeast 456 525 33,000  Level FlightAware Transoceanic
01:59AM 33.5835 -67.1856 149° Southeast 456 525 33,000  Level FlightAware Transoceanic
02:00AM 33.4734 -67.1066 149° Southeast 456 525 33,000  Level FlightAware Transoceanic
02:01AM 33.3632 -67.0279 149° Southeast 460 529 33,000  Level FlightAware Transoceanic
02:02AM 33.2530 -66.9493 149° Southeast 460 529 33,000  Level FlightAware Transoceanic
02:03AM 33.1427 -66.8710 149° Southeast 460 529 33,000  Level FlightAware Transoceanic
02:04AM 33.0324 -66.7929 149° Southeast 460 529 33,000  Level FlightAware Transoceanic
02:05AM 32.9221 -66.7149 149° Southeast 460 529 33,000  Level FlightAware Transoceanic
02:06AM 32.8117 -66.6372 149° Southeast 460 529 33,000  Level FlightAware Transoceanic
02:07AM 32.7012 -66.5596 149° Southeast 460 529 33,000  Level FlightAware Transoceanic
02:08AM 32.5907 -66.4822 149° Southeast 460 529 33,000  Level FlightAware Transoceanic
02:09AM 32.4801 -66.4050 150° Southeast 460 529 33,000  Level FlightAware Transoceanic
02:10AM 32.3695 -66.3280 150° Southeast 460 529 33,000  Level FlightAware Transoceanic
02:11AM 32.2589 -66.2512 150° Southeast 460 529 33,000  Level FlightAware Transoceanic
02:12AM 32.1482 -66.1746 150° Southeast 460 529 33,000  Level FlightAware Transoceanic
02:13AM 32.0375 -66.0982 150° Southeast 460 529 33,000  Level FlightAware Transoceanic
02:14AM 31.9267 -66.0219 150° Southeast 460 529 33,000  Level FlightAware Transoceanic
02:15AM 31.8158 -65.9459 150° Southeast 460 529 33,000  Level FlightAware Transoceanic
02:16AM 31.7050 -65.8700 150° Southeast 460 529 33,000  Level FlightAware Transoceanic
02:17AM 31.5940 -65.7943 150° Southeast 460 529 33,000  Level FlightAware Transoceanic
02:18AM 31.4831 -65.7188 150° Southeast 460 529 33,000  Level FlightAware Transoceanic
02:19AM 31.3721 -65.6434 150° Southeast 460 529 33,000  Level FlightAware Transoceanic
02:20AM 31.2610 -65.5683 150° Southeast 460 529 33,000  Level FlightAware Transoceanic
02:21AM 31.1499 -65.4933 150° Southeast 460 529 33,000  Level FlightAware Transoceanic
02:22AM 31.0388 -65.4185 150° Southeast 460 529 33,000  Level FlightAware Transoceanic
02:23AM 30.9276 -65.3438 150° Southeast 460 529 33,000  Level FlightAware Transoceanic
02:24AM 30.8922 -65.3201 150° Southeast 450 518 33,000  Level FlightAware Transoceanic
02:25AM 30.7835 -65.2474 150° Southeast 450 518 33,000  Level FlightAware Transoceanic
02:26AM 30.6747 -65.1749 150° Southeast 450 518 33,000  Level FlightAware Transoceanic
02:27AM 30.5660 -65.1025 150° Southeast 450 518 33,000  Level FlightAware Transoceanic
02:28AM 30.4571 -65.0303 150° Southeast 450 518 33,000  Level FlightAware Transoceanic
02:29AM 30.3482 -64.9582 150° Southeast 450 518 33,000  Level FlightAware Transoceanic
02:30AM 30.2393 -64.8863 150° Southeast 450 518 33,000  Level FlightAware Transoceanic
02:31AM 30.1304 -64.8145 150° Southeast 450 518 33,000  Level FlightAware Transoceanic
02:32AM 30.0214 -64.7429 150° Southeast 450 518 33,000  Level FlightAware Transoceanic
02:33AM 29.9124 -64.6715 150° Southeast 450 518 33,000  Level FlightAware Transoceanic
02:34AM 29.8033 -64.6002 150° Southeast 450 518 33,000  Level FlightAware Transoceanic
02:35AM 29.6942 -64.5291 151° Southeast 450 518 33,000  Level FlightAware Transoceanic
02:36AM 29.5851 -64.4581 151° Southeast 450 518 33,000  Level FlightAware Transoceanic
02:37AM 29.4759 -64.3873 151° Southeast 450 518 33,000  Level FlightAware Transoceanic
02:38AM 29.3667 -64.3167 169° South 450 518 33,000  Level FlightAware Transoceanic
02:39AM 29.2445 -64.2890 169° South 450 518 33,000  Level FlightAware Transoceanic
02:39AM 29.3667 -64.3167 169° South 447 514 33,000  Level New York Oceanic (ODAPS)
02:40AM 29.1223 -64.2615 169° South 450 518 33,000  Level FlightAware Transoceanic
02:41AM 29.0002 -64.2340 169° South 450 518 33,000  Level FlightAware Transoceanic
02:42AM 28.8780 -64.2066 169° South 450 518 33,000  Level FlightAware Transoceanic
02:43AM 28.7558 -64.1793 169° South 450 518 33,000  Level FlightAware Transoceanic
02:44AM 28.6336 -64.1520 169° South 450 518 33,000  Level FlightAware Transoceanic
02:45AM 28.5114 -64.1247 169° South 450 518 33,000  Level FlightAware Transoceanic
02:46AM 28.3892 -64.0976 169° South 447 514 33,000  Level FlightAware Transoceanic
02:47AM 28.2670 -64.0705 169° South 447 514 33,000  Level FlightAware Transoceanic
02:48AM 28.1447 -64.0434 169° South 447 514 33,000  Level FlightAware Transoceanic
02:49AM 28.0225 -64.0165 169° South 447 514 33,000  Level FlightAware Transoceanic
02:50AM 27.9003 -63.9896 169° South 447 514 33,000  Level FlightAware Transoceanic
02:51AM 27.7780 -63.9627 169° South 447 514 33,000  Level FlightAware Transoceanic
02:52AM 27.6558 -63.9359 169° South 447 514 33,000  Level FlightAware Transoceanic
02:53AM 27.5336 -63.9092 169° South 447 514 33,000  Level FlightAware Transoceanic
02:54AM 27.4113 -63.8825 169° South 447 514 33,000  Level FlightAware Transoceanic
02:55AM 27.2891 -63.8559 169° South 447 514 33,000  Level FlightAware Transoceanic
02:56AM 27.1668 -63.8293 169° South 447 514 33,000  Level FlightAware Transoceanic
02:57AM 27.0445 -63.8028 169° South 447 514 33,000  Level FlightAware Transoceanic
02:58AM 26.9223 -63.7764 169° South 447 514 33,000  Level FlightAware Transoceanic
02:59AM 26.8000 -63.7500 169° South 447 514 33,000  Level FlightAware Transoceanic
03:00AM 26.6778 -63.7234 169° South 447 514 33,000  Level FlightAware Transoceanic
03:01AM 26.5557 -63.6968 169° South 447 514 33,000  Level FlightAware Transoceanic
03:02AM 26.4335 -63.6703 169° South 447 514 33,000  Level FlightAware Transoceanic
03:02AM 26.8000 -63.7500 169° South 447 514 33,000  Level New York Oceanic (ODAPS)
03:03AM 26.3113 -63.6438 169° South 447 514 33,000  Level FlightAware Transoceanic
03:04AM 26.1891 -63.6175 169° South 447 514 33,000  Level FlightAware Transoceanic
03:05AM 26.0670 -63.5911 169° South 447 514 33,000  Level FlightAware Transoceanic
03:06AM 25.9448 -63.5648 169° South 447 514 33,000  Level FlightAware Transoceanic
03:07AM 25.8226 -63.5386 169° South 447 514 33,000  Level FlightAware Transoceanic
03:08AM 25.7004 -63.5124 169° South 447 514 33,000  Level FlightAware Transoceanic
03:09AM 25.5782 -63.4863 169° South 447 514 33,000  Level FlightAware Transoceanic
03:10AM 25.4560 -63.4602 169° South 447 514 33,000  Level FlightAware Transoceanic
03:11AM 25.3337 -63.4342 169° South 447 514 33,000  Level FlightAware Transoceanic
03:12AM 25.2115 -63.4082 169° South 447 514 33,000  Level FlightAware Transoceanic
03:13AM 25.0893 -63.3823 169° South 447 514 33,000  Level FlightAware Transoceanic
03:14AM 24.9671 -63.3564 169° South 447 514 33,000  Level FlightAware Transoceanic
03:15AM 24.8448 -63.3306 169° South 447 514 33,000  Level FlightAware Transoceanic
03:16AM 24.7226 -63.3049 169° South 447 514 33,000  Level FlightAware Transoceanic
03:17AM 24.6004 -63.2792 169° South 447 514 33,000  Level FlightAware Transoceanic
03:18AM 24.4781 -63.2535 169° South 447 514 33,000  Level FlightAware Transoceanic
03:19AM 24.3559 -63.2279 169° South 447 514 33,000  Level FlightAware Transoceanic
03:20AM 24.2336 -63.2023 169° South 447 514 33,000  Level FlightAware Transoceanic
03:21AM 24.1113 -63.1768 169° South 447 514 33,000  Level FlightAware Transoceanic
03:22AM 23.9891 -63.1514 169° South 447 514 33,000  Level FlightAware Transoceanic
03:23AM 23.8668 -63.1260 169° South 447 514 33,000  Level FlightAware Transoceanic
03:24AM 23.7446 -63.1006 169° South 447 514 33,000  Level FlightAware Transoceanic
03:25AM 23.6223 -63.0753 169° South 447 514 33,000  Level FlightAware Transoceanic
03:26AM 23.5000 -63.0500 169° South 447 514 33,000  Level FlightAware Transoceanic
03:27AM 23.3764 -63.0245 169° South 447 514 33,000  Level FlightAware Transoceanic
03:27AM 23.5000 -63.0500 169° South 452 520 33,000  Level New York Oceanic (ODAPS)
03:28AM 23.2529 -62.9990 169° South 447 514 33,000  Level FlightAware Transoceanic
03:29AM 23.1293 -62.9736 169° South 447 514 33,000  Level FlightAware Transoceanic
03:30AM 23.0057 -62.9482 169° South 447 514 33,000  Level FlightAware Transoceanic
03:31AM 22.8821 -62.9229 169° South 447 514 33,000  Level FlightAware Transoceanic
03:32AM 22.7585 -62.8976 169° South 447 514 33,000  Level FlightAware Transoceanic
03:33AM 22.6350 -62.8724 169° South 452 520 33,000  Level FlightAware Transoceanic
03:34AM 22.5114 -62.8472 169° South 452 520 33,000  Level FlightAware Transoceanic
03:35AM 22.3878 -62.8220 169° South 452 520 33,000  Level FlightAware Transoceanic
03:36AM 22.2642 -62.7969 169° South 452 520 33,000  Level FlightAware Transoceanic
03:37AM 22.1406 -62.7719 169° South 452 520 33,000  Level FlightAware Transoceanic
03:38AM 22.0169 -62.7469 169° South 452 520 33,000  Level FlightAware Transoceanic
03:39AM 21.8933 -62.7219 169° South 452 520 33,000  Level FlightAware Transoceanic
03:40AM 21.7697 -62.6970 169° South 452 520 33,000  Level FlightAware Transoceanic
03:41AM 21.6461 -62.6721 169° South 452 520 33,000  Level FlightAware Transoceanic
03:42AM 21.5225 -62.6472 169° South 452 520 33,000  Level FlightAware Transoceanic
03:43AM 21.3988 -62.6224 169° South 452 520 33,000  Level FlightAware Transoceanic
03:44AM 21.2752 -62.5977 169° South 452 520 33,000  Level FlightAware Transoceanic
03:44AM 21.3833 -62.6333 169° South 517 595 33,000  Level New York Oceanic (ODAPS)
03:45AM 21.1516 -62.5730 169° South 452 520 33,000  Level FlightAware Transoceanic
03:45AM 21.0500 -62.5333 170° South 410 472 33,000  Level San Juan Center
03:46AM 21.0279 -62.5483 169° South 452 520 33,000  Level FlightAware Transoceanic
03:46AM 20.9333 -62.5167 172° South 450 518 33,000  Level San Juan Center
03:47AM 20.9043 -62.5237 169° South 452 520 33,000  Level FlightAware Transoceanic
03:47AM 20.8000 -62.4833 167° South 460 529 33,000  Level San Juan Center
03:48AM 20.7806 -62.4991 169° South 452 520 33,000  Level FlightAware Transoceanic
03:48AM 20.6667 -62.4667 173° South 460 529 33,000  Level San Juan Center
03:49AM 20.6570 -62.4745 169° South 452 520 33,000  Level FlightAware Transoceanic
03:49AM 20.5500 -62.4333 165° South 460 529 33,000  Level San Juan Center
03:50AM 20.4067 -62.4255 170° South 517 595 33,000  Level FlightAware Transoceanic
03:50AM 20.4167 -62.4167 173° South 460 529 33,000  Level San Juan Center
03:51AM 20.2801 -62.4010 170° South 517 595 33,000  Level FlightAware Transoceanic
03:51AM 20.3000 -62.3833 165° South 460 529 33,000  Level San Juan Center
03:52AM 20.1667 -62.3667 173° South 450 518 33,000  Level San Juan Center
03:53AM 20.0500 -62.3333 165° South 460 529 33,000  Level San Juan Center
03:54AM 19.9167 -62.3167 173° South 460 529 33,000  Level San Juan Center
03:55AM 19.7833 -62.2833 167° South 470 541 33,000  Level San Juan Center
03:56AM 19.6667 -62.2500 165° South 460 529 33,000  Level San Juan Center
03:57AM 19.5333 -62.2333 173° South 460 529 33,000  Level San Juan Center
03:58AM 19.4167 -62.2167 172° South 460 529 33,000  Level San Juan Center
03:59AM 19.2833 -62.1833 167° South 460 529 33,000  Level San Juan Center
04:00AM 19.1667 -62.1667 172° South 460 529 33,000  Level San Juan Center
04:01AM 19.0333 -62.1500 173° South 460 529 33,000  Level San Juan Center
04:03AM 18.9000 -62.1333 173° South 460 529 33,000  Level San Juan Center
04:04AM 18.7833 -62.1000 165° South 450 518 33,000  Level San Juan Center
04:05AM 18.6500 -62.0833 173° South 450 518 33,000  Level San Juan Center
04:06AM 18.5333 -62.0667 172° South 450 518 33,000  Level San Juan Center
04:07AM 18.4000 -62.0333 167° South 460 529 33,000  Level San Juan Center
04:08AM 18.2833 -62.0167 172° South 460 529 33,000  Level San Juan Center
04:09AM 18.1500 -61.9833 167° South 460 529 33,000  Level San Juan Center
04:10AM 18.0333 -61.9667 172° South 460 529 33,000  Level San Juan Center
04:11AM 17.9000 -61.9333 167° South 460 529 33,000  Level San Juan Center
04:13AM 17.6560 -61.8917 171° South  Level FlightAware Approximate
04:20AM 16.8073 -61.6703 158° South  Level FlightAware Approximate
04:21AM 16.6906 -61.6215 158° South  Level FlightAware Approximate
04:22AM 16.5739 -61.5728 158° South  Level FlightAware Approximate
04:23AM 16.4572 -61.5241 158° South  Level FlightAware Approximate
04:24AM 16.3405 -61.4755 158° South  Level FlightAware Approximate
04:25AM 16.2238 -61.4269 158° South  Level FlightAware Approximate
04:26AM 16.1071 -61.3784 158° South  Level FlightAware Approximate
04:27AM 15.9903 -61.3300 158° South  Level FlightAware Approximate
04:28AM 15.8736 -61.2816 158° South  Level FlightAware Approximate
04:29AM 15.7568 -61.2333 158° South  Level FlightAware Approximate
04:30AM 15.6400 -61.1850 158° South  Level FlightAware Approximate
04:31AM 15.5233 -61.1368 158° South  Level FlightAware Approximate
04:32AM 15.4065 -61.0886 158° South  Level FlightAware Approximate
04:33AM 15.2897 -61.0405 158° South  Level FlightAware Approximate
04:34AM 15.1729 -60.9925 158° South  Level FlightAware Approximate
04:35AM 15.0560 -60.9445 158° South  Level FlightAware Approximate
04:36AM 14.9392 -60.8965 158° South  Level FlightAware Approximate
04:37AM 14.8224 -60.8486 158° South  Level FlightAware Approximate
04:38AM 14.7055 -60.8008 158° South  Level FlightAware Approximate
04:39AM 14.5887 -60.7530 158° South  Level FlightAware Approximate
04:40AM 14.4718 -60.7052 158° South  Level FlightAware Approximate
04:41AM 14.3549 -60.6575 158° South  Level FlightAware Approximate
04:42AM 14.2380 -60.6099 158° South  Level FlightAware Approximate
04:43AM 14.1211 -60.5623 158° South  Level FlightAware Approximate
04:44AM 14.0042 -60.5148 158° South  Level FlightAware Approximate
04:45AM 13.8873 -60.4673 158° South  Level FlightAware Approximate
04:46AM 13.7704 -60.4198 158° South  Level FlightAware Approximate
04:47AM 13.6534 -60.3724 159° South  Level FlightAware Approximate
04:48AM 13.5365 -60.3251 159° South  Level FlightAware Approximate
04:49AM 13.4195 -60.2778 159° South  Level FlightAware Approximate
04:50AM 13.3024 -60.2308 159° South  Level FlightAware Approximate
04:51AM 13.1853 -60.1839 159° South  Level FlightAware Approximate
04:52AM 13.0682 -60.1370 159° South  Level FlightAware Approximate
04:53AM 12.9511 -60.0902 159° South  Level FlightAware Approximate
04:54AM 12.8340 -60.0434 159° South  Level FlightAware Approximate
04:55AM 12.7168 -59.9967 159° South  Level FlightAware Approximate
04:56AM 12.5990 -59.9521 160° South  Level FlightAware Approximate
04:57AM 12.4808 -59.9083 160° South  Level FlightAware Approximate
04:58AM 12.3625 -59.8646 160° South  Level FlightAware Approximate
04:59AM 12.2443 -59.8209 160° South  Level FlightAware Approximate
05:00AM 12.1261 -59.7772 160° South  Level FlightAware Approximate
05:01AM 12.0079 -59.7336 160° South  Level FlightAware Approximate
05:02AM 11.8899 -59.6893 159° South  Level FlightAware Approximate
05:03AM 11.7730 -59.6424 159° South  Level FlightAware Approximate
05:04AM 11.6559 -59.5955 159° South  Level FlightAware Approximate
05:05AM 11.5389 -59.5487 159° South  Level FlightAware Approximate
05:06AM 11.4219 -59.5019 159° South  Level FlightAware Approximate
05:07AM 11.3049 -59.4552 159° South  Level FlightAware Approximate
05:08AM 11.1879 -59.4085 159° South  Level FlightAware Approximate
05:09AM 11.0707 -59.3620 159° South  Level FlightAware Approximate
05:10AM 10.9536 -59.3157 159° South  Level FlightAware Approximate
05:11AM 10.8364 -59.2695 159° South  Level FlightAware Approximate
05:12AM 10.7192 -59.2232 159° South  Level FlightAware Approximate
05:13AM 10.6020 -59.1770 159° South  Level FlightAware Approximate
05:14AM 10.4848 -59.1309 159° South  Level FlightAware Approximate
05:15AM 10.3676 -59.0848 159° South  Level FlightAware Approximate
05:16AM 10.2504 -59.0387 159° South  Level FlightAware Approximate
05:17AM 10.1332 -58.9926 159° South  Level FlightAware Approximate
05:18AM 10.0159 -58.9466 159° South  Level FlightAware Approximate
05:19AM 9.8987 -58.9006 159° South  Level FlightAware Approximate
05:20AM 9.7815 -58.8546 159° South  Level FlightAware Approximate
05:21AM 9.6642 -58.8087 159° South  Level FlightAware Approximate
05:22AM 9.5470 -58.7628 159° South  Level FlightAware Approximate
05:23AM 9.4297 -58.7169 159° South  Level FlightAware Approximate
05:24AM 9.3124 -58.6711 159° South  Level FlightAware Approximate
05:25AM 9.1952 -58.6253 159° South  Level FlightAware Approximate
05:26AM 9.0779 -58.5796 159° South  Level FlightAware Approximate
05:27AM 8.9606 -58.5338 159° South  Level FlightAware Approximate
05:28AM 8.8424 -58.4908 161° South  Level FlightAware Approximate
05:29AM 8.7235 -58.4495 161° South  Level FlightAware Approximate
05:30AM 8.6047 -58.4081 161° South  Level FlightAware Approximate
05:31AM 8.4861 -58.3660 160° South  Level FlightAware Approximate
05:32AM 8.3679 -58.3228 160° South  Level FlightAware Approximate
05:33AM 8.2497 -58.2795 160° South  Level FlightAware Approximate
05:34AM 8.1315 -58.2363 160° South  Level FlightAware Approximate
05:35AM 8.0134 -58.1931 160° South  Level FlightAware Approximate
05:36AM 7.8952 -58.1500 160° South  Level FlightAware Approximate
05:37AM 7.7770 -58.1068 160° South  Level FlightAware Approximate
05:38AM 7.6588 -58.0637 160° South  Level FlightAware Approximate
05:39AM 7.5406 -58.0207 160° South  Level FlightAware Approximate
05:40AM 7.4224 -57.9776 160° South  Level FlightAware Approximate
05:41AM 7.3042 -57.9346 160° South  Level FlightAware Approximate
05:42AM 7.1859 -57.8915 160° South  Level FlightAware Approximate
05:43AM 7.0677 -57.8486 160° South  Level FlightAware Approximate
05:44AM 6.9495 -57.8056 160° South  Level FlightAware Approximate
05:45AM 6.8313 -57.7626 160° South  Level FlightAware Approximate
05:46AM 6.7130 -57.7197 160° South  Level FlightAware Approximate
05:47AM 6.5948 -57.6768 160° South  Level FlightAware Approximate
05:48AM 6.4766 -57.6339 160° South  Level FlightAware Approximate
05:49AM 6.3583 -57.5910 160° South  Level FlightAware Approximate
05:50AM 6.2401 -57.5482 160° South  Level FlightAware Approximate
05:51AM 6.1219 -57.5054 160° South  Level FlightAware Approximate
05:52AM 6.0036 -57.4626 160° South  Level FlightAware Approximate
05:53AM 5.8854 -57.4198 160° South  Level FlightAware Approximate
05:54AM 5.7671 -57.3770 160° South  Level FlightAware Approximate
05:55AM 5.6488 -57.3342 160° South  Level FlightAware Approximate
05:56AM 5.5306 -57.2915 160° South  Level FlightAware Approximate
05:57AM 5.4123 -57.2488 160° South  Level FlightAware Approximate
05:58AM 5.2940 -57.2061 160° South  Level FlightAware Approximate
05:59AM 5.1758 -57.1634 160° South  Level FlightAware Approximate
06:00AM 5.0575 -57.1207 160° South  Level FlightAware Approximate
06:01AM 4.9392 -57.0781 160° South  Level FlightAware Approximate
06:02AM 4.8209 -57.0354 160° South  Level FlightAware Approximate
06:03AM 4.7026 -56.9928 160° South  Level FlightAware Approximate
06:04AM 4.5844 -56.9502 160° South  Level FlightAware Approximate
06:05AM 4.4661 -56.9076 160° South  Level FlightAware Approximate
06:06AM 4.3478 -56.8650 160° South  Level FlightAware Approximate
06:07AM 4.2295 -56.8225 160° South  Level FlightAware Approximate
06:08AM 4.1112 -56.7799 160° South  Level FlightAware Approximate
06:09AM 3.9929 -56.7374 160° South  Level FlightAware Approximate
06:10AM 3.8746 -56.6948 160° South  Level FlightAware Approximate
06:11AM 3.7563 -56.6523 160° South  Level FlightAware Approximate
06:12AM 3.6380 -56.6098 160° South  Level FlightAware Approximate
06:13AM 3.5197 -56.5673 160° South  Level FlightAware Approximate
06:14AM 3.4014 -56.5248 160° South  Level FlightAware Approximate
06:15AM 3.2830 -56.4824 160° South  Level FlightAware Approximate
06:16AM 3.1647 -56.4399 160° South  Level FlightAware Approximate
06:17AM 3.0464 -56.3976 160° South  Level FlightAware Approximate
06:18AM 2.9280 -56.3554 160° South  Level FlightAware Approximate
06:19AM 2.8096 -56.3132 160° South  Level FlightAware Approximate
06:20AM 2.6911 -56.2710 160° South  Level FlightAware Approximate
06:21AM 2.5727 -56.2289 160° South  Level FlightAware Approximate
06:22AM 2.4543 -56.1867 160° South  Level FlightAware Approximate
06:23AM 2.3359 -56.1446 160° South  Level FlightAware Approximate
06:24AM 2.2175 -56.1024 160° South  Level FlightAware Approximate
06:25AM 2.0991 -56.0603 160° South  Level FlightAware Approximate
06:26AM 1.9806 -56.0182 160° South  Level FlightAware Approximate
06:27AM 1.8622 -55.9760 160° South  Level FlightAware Approximate
06:28AM 1.7438 -55.9339 160° South  Level FlightAware Approximate
06:29AM 1.6254 -55.8918 160° South  Level FlightAware Approximate
06:30AM 1.5070 -55.8497 160° South  Level FlightAware Approximate
06:31AM 1.3886 -55.8076 160° South  Level FlightAware Approximate
06:32AM 1.2701 -55.7655 160° South  Level FlightAware Approximate
06:33AM 1.1517 -55.7234 160° South  Level FlightAware Approximate
06:34AM 1.0333 -55.6813 160° South  Level FlightAware Approximate
06:35AM 0.9148 -55.6392 160° South  Level FlightAware Approximate
06:36AM 0.7964 -55.5971 160° South  Level FlightAware Approximate
06:37AM 0.6780 -55.5551 160° South  Level FlightAware Approximate
06:38AM 0.5596 -55.5130 160° South  Level FlightAware Approximate
06:39AM 0.4411 -55.4709 160° South  Level FlightAware Approximate
06:40AM 0.3227 -55.4288 160° South  Level FlightAware Approximate
06:41AM 0.2043 -55.3867 160° South  Level FlightAware Approximate
06:42AM 0.0858 -55.3447 160° South  Level FlightAware Approximate
06:43AM -0.0326 -55.3026 160° South  Level FlightAware Approximate
06:44AM -0.1510 -55.2605 160° South  Level FlightAware Approximate
06:45AM -0.2695 -55.2185 160° South  Level FlightAware Approximate
06:46AM -0.3879 -55.1764 160° South  Level FlightAware Approximate
06:47AM -0.5063 -55.1343 160° South  Level FlightAware Approximate
06:48AM -0.6247 -55.0922 160° South  Level FlightAware Approximate
06:49AM -0.7432 -55.0502 160° South  Level FlightAware Approximate
06:50AM -0.8616 -55.0081 160° South  Level FlightAware Approximate
06:51AM -0.9800 -54.9660 160° South  Level FlightAware Approximate
06:52AM -1.0985 -54.9239 160° South  Level FlightAware Approximate
06:53AM -1.2169 -54.8818 160° South  Level FlightAware Approximate
06:54AM -1.3353 -54.8397 160° South  Level FlightAware Approximate
06:55AM -1.4537 -54.7976 160° South  Level FlightAware Approximate
06:56AM -1.5721 -54.7555 160° South  Level FlightAware Approximate
06:57AM -1.6906 -54.7134 160° South  Level FlightAware Approximate
06:58AM -1.8090 -54.6713 160° South  Level FlightAware Approximate
06:59AM -1.9274 -54.6292 160° South  Level FlightAware Approximate
07:00AM -2.0458 -54.5871 160° South  Level FlightAware Approximate
07:01AM -2.1642 -54.5449 160° South  Level FlightAware Approximate
07:02AM -2.2827 -54.5028 160° South  Level FlightAware Approximate
07:03AM -2.4011 -54.4606 160° South  Level FlightAware Approximate
07:04AM -2.5195 -54.4185 160° South  Level FlightAware Approximate
07:05AM -2.6379 -54.3763 160° South  Level FlightAware Approximate
07:06AM -2.7563 -54.3342 160° South  Level FlightAware Approximate
07:07AM -2.8747 -54.2920 160° South  Level FlightAware Approximate
07:08AM -2.9931 -54.2498 160° South  Level FlightAware Approximate
07:09AM -3.1115 -54.2076 160° South  Level FlightAware Approximate
07:10AM -3.2299 -54.1654 160° South  Level FlightAware Approximate
07:11AM -3.3484 -54.1232 160° South  Level FlightAware Approximate
07:12AM -3.4667 -54.0810 160° South  Level FlightAware Approximate
07:13AM -3.5852 -54.0387 160° South  Level FlightAware Approximate
07:14AM -3.7036 -53.9965 160° South  Level FlightAware Approximate
07:15AM -3.8219 -53.9543 160° South  Level FlightAware Approximate
07:16AM -3.9403 -53.9120 160° South  Level FlightAware Approximate
07:17AM -4.0587 -53.8697 160° South  Level FlightAware Approximate
07:18AM -4.1771 -53.8274 160° South  Level FlightAware Approximate
07:19AM -4.2955 -53.7851 160° South  Level FlightAware Approximate
07:20AM -4.4139 -53.7428 160° South  Level FlightAware Approximate
07:21AM -4.5323 -53.7005 160° South  Level FlightAware Approximate
07:22AM -4.6507 -53.6581 160° South  Level FlightAware Approximate
07:23AM -4.7690 -53.6157 160° South  Level FlightAware Approximate
07:24AM -4.8874 -53.5734 160° South  Level FlightAware Approximate
07:25AM -5.0058 -53.5310 160° South  Level FlightAware Approximate
07:26AM -5.1241 -53.4886 160° South  Level FlightAware Approximate
07:27AM -5.2425 -53.4462 160° South  Level FlightAware Approximate
07:28AM -5.3609 -53.4037 160° South  Level FlightAware Approximate
07:29AM -5.4792 -53.3613 160° South  Level FlightAware Approximate
07:30AM -5.5976 -53.3188 160° South  Level FlightAware Approximate
07:31AM -5.7159 -53.2763 160° South  Level FlightAware Approximate
07:32AM -5.8343 -53.2338 160° South  Level FlightAware Approximate
07:33AM -5.9526 -53.1913 160° South  Level FlightAware Approximate
07:34AM -6.0710 -53.1488 160° South  Level FlightAware Approximate
07:35AM -6.1893 -53.1062 160° South  Level FlightAware Approximate
07:36AM -6.3077 -53.0636 160° South  Level FlightAware Approximate
07:37AM -6.4260 -53.0210 160° South  Level FlightAware Approximate
07:38AM -6.5443 -52.9784 160° South  Level FlightAware Approximate
07:39AM -6.6627 -52.9357 160° South  Level FlightAware Approximate
07:40AM -6.7810 -52.8931 160° South  Level FlightAware Approximate
07:41AM -6.8993 -52.8504 160° South  Level FlightAware Approximate
07:42AM -7.0176 -52.8077 160° South  Level FlightAware Approximate
07:43AM -7.1365 -52.7648 160° South  Level FlightAware Approximate
07:44AM -7.2554 -52.7218 160° South  Level FlightAware Approximate
07:45AM -7.3742 -52.6789 160° South  Level FlightAware Approximate
07:46AM -7.4931 -52.6359 160° South  Level FlightAware Approximate
07:47AM -7.6120 -52.5928 160° South  Level FlightAware Approximate
07:48AM -7.7309 -52.5498 160° South  Level FlightAware Approximate
07:49AM -7.8497 -52.5067 160° South  Level FlightAware Approximate
07:50AM -7.9686 -52.4636 160° South  Level FlightAware Approximate
07:51AM -8.0874 -52.4205 160° South  Level FlightAware Approximate
07:52AM -8.2063 -52.3774 160° South  Level FlightAware Approximate
07:53AM -8.3251 -52.3342 160° South  Level FlightAware Approximate
07:54AM -8.4439 -52.2910 160° South  Level FlightAware Approximate
07:55AM -8.5627 -52.2478 160° South  Level FlightAware Approximate
07:56AM -8.6816 -52.2045 160° South  Level FlightAware Approximate
07:57AM -8.8004 -52.1613 160° South  Level FlightAware Approximate
07:58AM -8.9192 -52.1180 160° South  Level FlightAware Approximate
07:59AM -9.0380 -52.0746 160° South  Level FlightAware Approximate
08:00AM -9.1568 -52.0313 160° South  Level FlightAware Approximate
08:01AM -9.2756 -51.9879 160° South  Level FlightAware Approximate
08:02AM -9.3944 -51.9445 160° South  Level FlightAware Approximate
08:03AM -9.5132 -51.9010 160° South  Level FlightAware Approximate
08:04AM -9.6320 -51.8575 160° South  Level FlightAware Approximate
08:05AM -9.7508 -51.8140 160° South  Level FlightAware Approximate
08:06AM -9.8695 -51.7705 160° South  Level FlightAware Approximate
08:07AM -9.9883 -51.7269 160° South  Level FlightAware Approximate
08:08AM -10.1071 -51.6833 160° South  Level FlightAware Approximate
08:09AM -10.2258 -51.6397 160° South  Level FlightAware Approximate
08:10AM -10.3446 -51.5960 160° South  Level FlightAware Approximate
08:11AM -10.4633 -51.5523 160° South  Level FlightAware Approximate
08:12AM -10.5821 -51.5086 160° South  Level FlightAware Approximate
08:13AM -10.7008 -51.4648 160° South  Level FlightAware Approximate
08:14AM -10.8195 -51.4210 160° South  Level FlightAware Approximate
08:15AM -10.9382 -51.3772 160° South  Level FlightAware Approximate
08:16AM -11.0570 -51.3333 160° South  Level FlightAware Approximate
08:17AM -11.1757 -51.2894 160° South  Level FlightAware Approximate
08:18AM -11.2944 -51.2454 160° South  Level FlightAware Approximate
08:19AM -11.4131 -51.2015 160° South  Level FlightAware Approximate
08:20AM -11.5317 -51.1574 160° South  Level FlightAware Approximate
08:21AM -11.6504 -51.1134 160° South  Level FlightAware Approximate
08:22AM -11.7691 -51.0693 160° South  Level FlightAware Approximate
08:23AM -11.8878 -51.0252 160° South  Level FlightAware Approximate
08:24AM -12.0064 -50.9810 160° South  Level FlightAware Approximate
08:25AM -12.1251 -50.9368 160° South  Level FlightAware Approximate
08:26AM -12.2437 -50.8925 160° South  Level FlightAware Approximate
08:27AM -12.3624 -50.8482 160° South  Level FlightAware Approximate
08:28AM -12.4810 -50.8039 160° South  Level FlightAware Approximate
08:29AM -12.5996 -50.7595 160° South  Level FlightAware Approximate
08:30AM -12.7183 -50.7151 160° South  Level FlightAware Approximate
08:31AM -12.8369 -50.6707 160° South  Level FlightAware Approximate
08:32AM -12.9555 -50.6262 160° South  Level FlightAware Approximate
08:33AM -13.0741 -50.5816 160° South  Level FlightAware Approximate
08:34AM -13.1927 -50.5371 160° South  Level FlightAware Approximate
08:35AM -13.3112 -50.4924 160° South  Level FlightAware Approximate
08:36AM -13.4298 -50.4478 160° South  Level FlightAware Approximate
08:37AM -13.5484 -50.4031 160° South  Level FlightAware Approximate
08:38AM -13.6669 -50.3583 160° South  Level FlightAware Approximate
08:39AM -13.7855 -50.3135 160° South  Level FlightAware Approximate
08:40AM -13.9040 -50.2687 160° South  Level FlightAware Approximate
08:41AM -14.0226 -50.2238 160° South  Level FlightAware Approximate
08:42AM -14.1411 -50.1788 160° South  Level FlightAware Approximate
08:43AM -14.2596 -50.1339 160° South  Level FlightAware Approximate
08:44AM -14.3781 -50.0888 160° South  Level FlightAware Approximate
08:45AM -14.4966 -50.0438 160° South  Level FlightAware Approximate
08:46AM -14.6151 -49.9986 160° South  Level FlightAware Approximate
08:47AM -14.7336 -49.9534 160° South  Level FlightAware Approximate
08:48AM -14.8520 -49.9082 160° South  Level FlightAware Approximate
08:49AM -14.9705 -49.8629 160° South  Level FlightAware Approximate
08:50AM -15.0890 -49.8176 160° South  Level FlightAware Approximate
08:51AM -15.2074 -49.7723 160° South  Level FlightAware Approximate
08:52AM -15.3259 -49.7268 160° South  Level FlightAware Approximate
08:53AM -15.4443 -49.6813 160° South  Level FlightAware Approximate
08:54AM -15.5627 -49.6358 160° South  Level FlightAware Approximate
08:55AM -15.6811 -49.5902 160° South  Level FlightAware Approximate
08:56AM -15.7995 -49.5446 160° South  Level FlightAware Approximate
08:57AM -15.9179 -49.4989 160° South  Level FlightAware Approximate
08:58AM -16.0363 -49.4532 160° South  Level FlightAware Approximate
08:59AM -16.1547 -49.4074 160° South  Level FlightAware Approximate
09:00AM -16.2730 -49.3615 160° South  Level FlightAware Approximate
09:01AM -16.3914 -49.3156 160° South  Level FlightAware Approximate
09:02AM -16.5097 -49.2696 160° South  Level FlightAware Approximate
09:03AM -16.6280 -49.2236 160° South  Level FlightAware Approximate
09:04AM -16.7464 -49.1775 160° South  Level FlightAware Approximate
09:05AM -16.8647 -49.1314 160° South  Level FlightAware Approximate
09:06AM -16.9830 -49.0852 160° South  Level FlightAware Approximate
09:07AM -17.1013 -49.0390 160° South  Level FlightAware Approximate
09:08AM -17.2195 -48.9927 159° South  Level FlightAware Approximate
09:09AM -17.3378 -48.9463 159° South  Level FlightAware Approximate
09:10AM -17.4561 -48.8999 159° South  Level FlightAware Approximate
09:11AM -17.5743 -48.8534 159° South  Level FlightAware Approximate
09:12AM -17.6926 -48.8068 159° South  Level FlightAware Approximate
09:13AM -17.8108 -48.7602 159° South  Level FlightAware Approximate
09:14AM -17.9290 -48.7135 159° South  Level FlightAware Approximate
09:15AM -18.0472 -48.6668 159° South  Level FlightAware Approximate
09:16AM -18.1654 -48.6200 159° South  Level FlightAware Approximate
09:17AM -18.2836 -48.5732 159° South  Level FlightAware Approximate
09:18AM -18.4018 -48.5262 159° South  Level FlightAware Approximate
09:19AM -18.5199 -48.4792 159° South  Level FlightAware Approximate
09:20AM -18.6381 -48.4322 159° South  Level FlightAware Approximate
09:21AM -18.7562 -48.3851 159° South  Level FlightAware Approximate
09:22AM -18.8743 -48.3379 159° South  Level FlightAware Approximate
09:23AM -18.9924 -48.2906 159° South  Level FlightAware Approximate
09:24AM -19.1105 -48.2433 159° South  Level FlightAware Approximate
09:25AM -19.2286 -48.1959 159° South  Level FlightAware Approximate
09:26AM -19.3467 -48.1485 159° South  Level FlightAware Approximate
09:27AM -19.4648 -48.1010 159° South  Level FlightAware Approximate
09:28AM -19.5828 -48.0534 159° South  Level FlightAware Approximate
09:29AM -19.7008 -48.0057 159° South  Level FlightAware Approximate
09:30AM -19.8189 -47.9580 159° South  Level FlightAware Approximate
09:31AM -19.9369 -47.9102 159° South  Level FlightAware Approximate
09:32AM -20.0549 -47.8623 159° South  Level FlightAware Approximate
09:33AM -20.1729 -47.8144 159° South  Level FlightAware Approximate
09:34AM -20.2908 -47.7663 159° South  Level FlightAware Approximate
09:35AM -20.4088 -47.7182 159° South  Level FlightAware Approximate
09:36AM -20.5268 -47.6701 159° South  Level FlightAware Approximate
09:37AM -20.6447 -47.6218 159° South  Level FlightAware Approximate
09:38AM -20.7626 -47.5735 159° South  Level FlightAware Approximate
09:39AM -20.8805 -47.5251 159° South  Level FlightAware Approximate
09:40AM -20.9984 -47.4767 159° South  Level FlightAware Approximate
09:41AM -21.1163 -47.4281 159° South  Level FlightAware Approximate
09:42AM -21.2341 -47.3795 159° South  Level FlightAware Approximate
09:43AM -21.3520 -47.3308 159° South  Level FlightAware Approximate
09:44AM -21.4697 -47.2818 155° Southeast  Level FlightAware Approximate
09:45AM -21.5842 -47.2245 155° Southeast  Level FlightAware Approximate
09:46AM -21.7040 -47.1820 163° South  Level FlightAware Approximate
09:47AM -21.8210 -47.1316 160° South  Level FlightAware Approximate
09:48AM -21.9394 -47.0843 160° South  Level FlightAware Approximate
09:49AM -22.0568 -47.0340 158° South  Level FlightAware Approximate
09:50AM -22.1744 -46.9846 161° South  Level FlightAware Approximate
09:51AM -22.2937 -46.9399 161° South  Level FlightAware Approximate
09:52AM -22.4127 -46.8941 157° South  Level FlightAware Approximate
09:53AM -22.5285 -46.8396 157° South  Level FlightAware Approximate
09:54AM -22.6443 -46.7851 157° South  Level FlightAware Approximate
09:55AM -22.7634 -46.7400 163° South  Level FlightAware Approximate
09:56AM -22.8816 -46.6926 155° Southeast  Level FlightAware Approximate
09:57AM -22.9963 -46.6352 155° Southeast  Level FlightAware Approximate
09:58AM -23.1142 -46.5868 159° South  Level FlightAware Approximate
09:59AM -23.2315 -46.5401 149° Southeast  Level FlightAware Approximate
10:00AM -23.3465 -46.4847 160° South  Level FlightAware Approximate
10:01AM -23.4167 -46.4667 167° South  Level FlightAware Approximate
10:02AM -23.4321 -46.4695 167° South  Level Estimated
10:03AM -23.4321 -46.4695 167° South  Level Estimated
10:04AM -23.4321 -46.4695 167° South  Level Estimated